createdAt,value
2023-08-29T00:01:45.508Z,82.50
2023-08-29T00:04:13.684Z,82.50
2023-08-29T00:06:41.844Z,82.50
2023-08-29T00:09:47.202Z,82.50
2023-08-29T00:12:15.273Z,82.40
2023-08-29T00:14:43.407Z,82.40
2023-08-29T00:17:12.870Z,82.40
2023-08-29T00:19:40.976Z,82.40
2023-08-29T00:22:09.040Z,82.40
2023-08-29T00:24:37.111Z,82.40
2023-08-29T00:27:05.336Z,82.40
2023-08-29T00:29:33.425Z,82.30
2023-08-29T00:32:01.553Z,82.30
2023-08-29T00:34:31.119Z,82.30
2023-08-29T00:36:59.199Z,82.30
2023-08-29T00:39:27.295Z,82.30
2023-08-29T00:41:59.997Z,82.20
2023-08-29T00:44:28.065Z,82.30
2023-08-29T00:46:56.180Z,82.30
2023-08-29T00:49:24.746Z,82.20
2023-08-29T00:51:54.314Z,82.20
2023-08-29T00:54:22.386Z,82.20
2023-08-29T00:56:53.977Z,82.20
2023-08-29T00:59:22.260Z,82.20
2023-08-29T01:01:50.371Z,82.20
2023-08-29T01:04:18.509Z,82.20
2023-08-29T01:06:46.616Z,82.10
2023-08-29T01:09:16.049Z,82.10
2023-08-29T01:11:51.155Z,82.10
2023-08-29T01:14:23.455Z,82.10
2023-08-29T01:16:54.743Z,82.00
2023-08-29T01:19:23.362Z,82.00
2023-08-29T01:21:56.849Z,82.10
2023-08-29T01:24:31.749Z,82.00
2023-08-29T01:27:01.246Z,82.00
2023-08-29T01:29:29.462Z,82.00
2023-08-29T01:31:57.828Z,81.90
2023-08-29T01:34:26.042Z,81.90
2023-08-29T01:36:54.122Z,81.90
2023-08-29T01:39:22.203Z,82.00
2023-08-29T01:41:50.296Z,81.90
2023-08-29T01:44:19.766Z,81.90
2023-08-29T01:46:47.826Z,81.90
2023-08-29T01:49:15.880Z,81.80
2023-08-29T01:51:43.950Z,81.80
2023-08-29T01:54:12.068Z,81.80
2023-08-29T01:56:40.902Z,81.80
2023-08-29T01:59:09.069Z,81.80
2023-08-29T02:01:39.822Z,81.70
2023-08-29T02:04:08.480Z,81.70
2023-08-29T02:06:36.618Z,81.70
2023-08-29T02:09:04.923Z,81.70
2023-08-29T02:11:33.052Z,81.60
2023-08-29T02:14:01.131Z,81.70
2023-08-29T02:16:29.282Z,81.60
2023-08-29T02:18:58.744Z,81.60
2023-08-29T02:21:26.998Z,81.60
2023-08-29T02:23:55.105Z,81.50
2023-08-29T02:26:23.243Z,81.60
2023-08-29T02:28:54.092Z,81.50
2023-08-29T02:31:22.298Z,81.50
2023-08-29T02:33:50.476Z,81.50
2023-08-29T02:36:19.991Z,81.50
2023-08-29T02:38:48.130Z,81.40
2023-08-29T02:41:16.220Z,81.40
2023-08-29T02:43:44.305Z,81.40
2023-08-29T02:46:18.157Z,81.40
2023-08-29T02:48:46.339Z,81.40
2023-08-29T02:51:14.423Z,81.40
2023-08-29T02:53:43.913Z,81.40
2023-08-29T02:56:11.995Z,81.30
2023-08-29T02:58:40.069Z,81.30
2023-08-29T03:01:12.554Z,81.30
2023-08-29T03:03:41.038Z,81.30
2023-08-29T03:06:09.200Z,81.30
2023-08-29T03:08:37.273Z,81.20
2023-08-29T03:11:06.732Z,81.20
2023-08-29T03:13:34.843Z,81.20
2023-08-29T03:16:03.116Z,81.20
2023-08-29T03:18:31.269Z,81.20
2023-08-29T03:21:02.149Z,81.20
2023-08-29T03:23:30.220Z,81.20
2023-08-29T03:26:07.600Z,81.20
2023-08-29T03:28:38.465Z,81.20
2023-08-29T03:31:12.821Z,81.20
2023-08-29T03:33:41.282Z,81.10
2023-08-29T03:36:09.604Z,81.10
2023-08-29T03:38:38.120Z,81.10
2023-08-29T03:41:07.626Z,81.10
2023-08-29T03:43:36.195Z,81.00
2023-08-29T03:46:05.018Z,81.10
2023-08-29T03:48:33.726Z,81.10
2023-08-29T03:51:03.707Z,81.10
2023-08-29T03:53:31.803Z,81.10
2023-08-29T03:56:01.624Z,81.10
2023-08-29T03:58:31.414Z,81.10
2023-08-29T04:00:59.629Z,81.00
2023-08-29T04:03:28.113Z,81.00
2023-08-29T04:05:56.417Z,81.00
2023-08-29T04:08:24.518Z,81.00
2023-08-29T04:10:52.608Z,81.00
2023-08-29T04:13:20.741Z,81.00
2023-08-29T04:15:50.444Z,80.90
2023-08-29T04:18:18.720Z,81.00
2023-08-29T04:20:46.799Z,81.00
2023-08-29T04:23:14.913Z,81.00
2023-08-29T04:25:43.025Z,80.90
2023-08-29T04:28:11.150Z,81.00
2023-08-29T04:30:39.266Z,80.90
2023-08-29T04:33:08.917Z,80.90
2023-08-29T04:35:37.051Z,80.90
2023-08-29T04:38:05.769Z,80.90
2023-08-29T04:40:34.095Z,80.80
2023-08-29T04:43:02.218Z,80.90
2023-08-29T04:45:30.404Z,80.80
2023-08-29T04:47:58.636Z,80.90
2023-08-29T04:50:30.224Z,80.80
2023-08-29T04:52:58.424Z,80.80
2023-08-29T04:55:26.516Z,80.80
2023-08-29T04:57:57.448Z,80.70
2023-08-29T05:00:25.710Z,80.80
2023-08-29T05:02:53.997Z,80.70
2023-08-29T05:05:22.191Z,80.70
2023-08-29T05:07:51.681Z,80.70
2023-08-29T05:10:19.789Z,80.70
2023-08-29T05:12:47.890Z,80.70
2023-08-29T05:15:17.633Z,80.70
2023-08-29T05:17:45.833Z,80.70
2023-08-29T05:20:14.000Z,80.70
2023-08-29T05:22:42.172Z,80.70
2023-08-29T05:25:11.957Z,80.70
2023-08-29T05:27:40.077Z,80.70
2023-08-29T05:30:10.312Z,80.70
2023-08-29T05:32:39.369Z,80.70
2023-08-29T05:35:08.189Z,80.70
2023-08-29T05:37:36.382Z,80.70
2023-08-29T05:40:07.171Z,80.70
2023-08-29T05:42:36.696Z,80.80
2023-08-29T05:45:05.152Z,80.70
2023-08-29T05:47:33.360Z,80.70
2023-08-29T05:50:01.622Z,80.80
2023-08-29T05:52:30.004Z,80.80
2023-08-29T05:54:58.795Z,80.80
2023-08-29T05:57:27.398Z,80.90
2023-08-29T05:59:56.980Z,80.80
2023-08-29T06:02:30.317Z,80.90
2023-08-29T06:04:58.438Z,80.90
2023-08-29T06:07:27.152Z,80.90
2023-08-29T06:09:55.247Z,80.90
2023-08-29T06:12:23.310Z,81.00
2023-08-29T06:14:52.210Z,81.00
2023-08-29T06:17:21.667Z,81.00
2023-08-29T06:19:49.761Z,81.10
2023-08-29T06:22:17.925Z,81.10
2023-08-29T06:24:46.154Z,81.10
2023-08-29T06:27:14.271Z,81.00
2023-08-29T06:29:42.544Z,81.10
2023-08-29T06:32:12.320Z,81.10
2023-08-29T06:34:41.803Z,81.10
2023-08-29T06:37:09.910Z,81.10
2023-08-29T06:39:38.182Z,81.10
2023-08-29T06:42:06.694Z,81.20
2023-08-29T06:44:34.810Z,81.20
2023-08-29T06:47:02.900Z,81.20
2023-08-29T06:49:31.007Z,81.20
2023-08-29T06:52:01.686Z,81.30
2023-08-29T06:54:32.052Z,80.90
2023-08-29T06:57:00.279Z,81.30
2023-08-29T06:59:28.920Z,81.20
2023-08-29T07:01:57.046Z,81.30
2023-08-29T07:04:25.129Z,81.40
2023-08-29T07:06:53.253Z,81.40
2023-08-29T07:09:22.742Z,81.40
2023-08-29T07:11:50.893Z,81.40
2023-08-29T07:14:18.996Z,81.40
2023-08-29T07:16:53.696Z,81.40
2023-08-29T07:19:35.298Z,81.40
2023-08-29T07:22:06.547Z,81.40
2023-08-29T07:24:46.836Z,81.30
2023-08-29T07:27:14.943Z,81.50
2023-08-29T07:29:44.211Z,81.30
2023-08-29T07:32:12.323Z,81.50
2023-08-29T07:34:41.795Z,81.30
2023-08-29T07:37:12.345Z,81.50
2023-08-29T07:39:40.435Z,81.30
2023-08-29T07:42:09.916Z,81.60
2023-08-29T07:44:37.998Z,81.50
2023-08-29T07:47:13.918Z,81.60
2023-08-29T07:49:42.859Z,81.60
2023-08-29T07:52:11.059Z,81.60
2023-08-29T07:54:39.248Z,81.40
2023-08-29T07:57:08.874Z,81.70
2023-08-29T07:59:37.011Z,81.80
2023-08-29T08:02:06.018Z,81.60
2023-08-29T08:04:34.125Z,81.80
2023-08-29T08:07:02.237Z,81.80
2023-08-29T08:09:30.748Z,81.50
2023-08-29T08:11:58.836Z,81.80
2023-08-29T08:14:28.302Z,81.90
2023-08-29T08:16:56.439Z,81.80
2023-08-29T08:19:24.570Z,81.60
2023-08-29T08:21:52.765Z,81.80
2023-08-29T08:24:20.884Z,82.00
2023-08-29T08:26:49.012Z,81.80
2023-08-29T08:29:17.093Z,81.80
2023-08-29T08:31:47.673Z,81.70
2023-08-29T08:34:15.917Z,82.00
2023-08-29T08:36:43.997Z,82.10
2023-08-29T08:39:12.111Z,82.00
2023-08-29T08:41:40.355Z,82.20
2023-08-29T08:44:11.003Z,82.30
2023-08-29T08:46:39.116Z,82.10
2023-08-29T08:49:14.006Z,82.30
2023-08-29T08:51:43.038Z,82.30
2023-08-29T08:54:11.538Z,82.40
2023-08-29T08:56:39.847Z,82.50
2023-08-29T08:59:07.962Z,82.50
2023-08-29T09:01:36.106Z,82.50
2023-08-29T09:04:04.427Z,82.60
2023-08-29T09:06:33.986Z,82.60
2023-08-29T09:09:16.971Z,82.60
2023-08-29T09:11:45.159Z,82.60
2023-08-29T09:14:14.160Z,82.70
2023-08-29T09:16:42.396Z,82.70
2023-08-29T09:19:10.470Z,82.80
2023-08-29T09:21:45.901Z,82.80
2023-08-29T09:24:14.556Z,82.80
2023-08-29T09:26:42.686Z,82.80
2023-08-29T09:29:20.054Z,82.90
2023-08-29T09:31:48.807Z,82.90
2023-08-29T09:34:27.405Z,82.90
2023-08-29T09:36:57.196Z,82.90
2023-08-29T09:39:25.470Z,82.90
2023-08-29T09:42:04.082Z,83.00
2023-08-29T09:44:35.951Z,83.00
2023-08-29T09:47:04.166Z,83.00
2023-08-29T09:49:33.580Z,83.00
2023-08-29T09:52:04.224Z,83.10
2023-08-29T09:54:32.322Z,83.10
2023-08-29T09:57:00.419Z,83.10
2023-08-29T09:59:28.635Z,83.10
2023-08-29T10:01:56.844Z,83.10
2023-08-29T10:04:25.420Z,83.10
2023-08-29T10:06:53.635Z,83.10
2023-08-29T10:09:23.157Z,83.20
2023-08-29T10:11:54.867Z,83.10
2023-08-29T10:14:23.719Z,83.20
2023-08-29T10:16:51.906Z,83.20
2023-08-29T10:19:20.049Z,83.20
2023-08-29T10:21:48.183Z,83.10
2023-08-29T10:24:16.332Z,83.20
2023-08-29T10:26:45.863Z,83.30
2023-08-29T10:29:13.937Z,83.30
2023-08-29T10:31:42.040Z,83.30
2023-08-29T10:34:12.576Z,83.20
2023-08-29T10:36:40.801Z,83.30
2023-08-29T10:39:10.650Z,83.40
2023-08-29T10:41:47.904Z,83.30
2023-08-29T10:44:26.430Z,83.10
2023-08-29T10:46:54.594Z,83.30
2023-08-29T10:49:23.236Z,83.40
2023-08-29T10:52:09.542Z,83.40
2023-08-29T10:54:37.685Z,83.40
2023-08-29T10:57:28.973Z,83.50
2023-08-29T10:59:57.241Z,83.40
2023-08-29T11:02:27.215Z,83.20
2023-08-29T11:04:57.341Z,83.40
2023-08-29T11:07:29.110Z,83.50
2023-08-29T11:10:16.361Z,83.50
2023-08-29T11:13:07.556Z,83.60
2023-08-29T11:16:15.528Z,83.10
2023-08-29T11:18:43.734Z,83.40
2023-08-29T11:21:12.102Z,83.40
2023-08-29T11:23:41.311Z,83.50
2023-08-29T11:26:09.522Z,83.40
2023-08-29T11:28:43.370Z,83.50
2023-08-29T11:31:11.847Z,83.60
2023-08-29T11:33:40.003Z,83.60
2023-08-29T11:36:08.527Z,83.60
2023-08-29T11:38:36.636Z,83.60
2023-08-29T11:41:15.568Z,83.60
2023-08-29T11:44:17.110Z,83.70
2023-08-29T11:46:45.691Z,83.40
2023-08-29T11:49:15.059Z,83.30
2023-08-29T11:51:43.206Z,83.40
2023-08-29T11:54:39.148Z,83.40
2023-08-29T11:57:08.742Z,83.40
2023-08-29T11:59:40.595Z,83.60
2023-08-29T12:02:10.112Z,83.70
2023-08-29T12:04:42.314Z,83.70
2023-08-29T12:07:11.543Z,83.50
2023-08-29T12:09:42.524Z,83.40
2023-08-29T12:12:11.073Z,83.30
2023-08-29T12:14:53.067Z,83.20
2023-08-29T12:17:21.211Z,83.00
2023-08-29T12:19:49.526Z,83.10
2023-08-29T12:22:20.784Z,82.80
2023-08-29T12:24:55.242Z,83.20
2023-08-29T12:27:23.473Z,83.40
2023-08-29T12:29:56.114Z,83.40
2023-08-29T12:32:27.706Z,83.50
2023-08-29T12:34:57.044Z,83.20
2023-08-29T12:37:25.175Z,83.00
2023-08-29T12:39:53.325Z,83.20
2023-08-29T12:42:21.432Z,83.30
2023-08-29T12:44:49.517Z,83.30
2023-08-29T12:47:18.970Z,83.50
2023-08-29T12:49:47.047Z,83.30
2023-08-29T12:52:15.710Z,83.40
2023-08-29T12:54:44.304Z,83.20
2023-08-29T12:57:12.492Z,83.40
2023-08-29T12:59:40.824Z,83.20
2023-08-29T13:02:09.258Z,83.20
2023-08-29T13:04:38.706Z,82.80
2023-08-29T13:07:06.820Z,83.30
2023-08-29T13:09:37.203Z,83.40
2023-08-29T13:12:08.267Z,83.50
2023-08-29T13:14:39.791Z,83.30
2023-08-29T13:17:11.000Z,83.20
2023-08-29T13:19:42.367Z,82.90
2023-08-29T13:22:10.494Z,83.20
2023-08-29T13:24:38.672Z,83.20
2023-08-29T13:27:07.005Z,83.50
2023-08-29T13:29:35.222Z,83.30
2023-08-29T13:32:03.489Z,83.10
2023-08-29T13:34:32.332Z,83.40
2023-08-29T13:37:01.810Z,83.60
2023-08-29T13:39:29.973Z,83.60
2023-08-29T13:41:58.069Z,83.50
2023-08-29T13:44:26.192Z,83.00
2023-08-29T13:46:54.301Z,82.80
2023-08-29T13:49:22.902Z,82.40
2023-08-29T13:51:51.044Z,82.60
2023-08-29T13:54:20.521Z,82.80
2023-08-29T13:56:49.963Z,83.00
2023-08-29T13:59:18.059Z,83.50
2023-08-29T14:01:46.141Z,83.20
2023-08-29T14:04:14.468Z,83.20
2023-08-29T14:06:42.714Z,83.00
2023-08-29T14:09:10.794Z,82.90
2023-08-29T14:11:40.468Z,83.20
2023-08-29T14:14:08.548Z,83.40
2023-08-29T14:16:36.681Z,83.10
2023-08-29T14:19:05.015Z,83.40
2023-08-29T14:21:33.128Z,83.50
2023-08-29T14:24:01.240Z,83.10
2023-08-29T14:26:29.327Z,83.00
2023-08-29T14:29:02.313Z,82.60
2023-08-29T14:31:30.448Z,83.10
2023-08-29T14:33:58.523Z,83.50
2023-08-29T14:36:26.655Z,83.60
2023-08-29T14:38:54.870Z,83.40
2023-08-29T14:41:23.110Z,83.40
2023-08-29T14:43:51.770Z,83.70
2023-08-29T14:46:21.326Z,83.70
2023-08-29T14:48:49.467Z,83.70
2023-08-29T14:51:17.574Z,83.60
2023-08-29T14:53:45.708Z,83.60
2023-08-29T14:56:18.710Z,83.70
2023-08-29T14:58:47.673Z,83.70
2023-08-29T15:01:15.810Z,83.80
2023-08-29T15:03:45.425Z,83.80
2023-08-29T15:06:15.756Z,83.90
2023-08-29T15:08:43.856Z,83.90
2023-08-29T15:11:11.999Z,83.90
2023-08-29T15:13:43.089Z,83.80
2023-08-29T15:16:11.223Z,83.90
2023-08-29T15:18:39.347Z,83.60
2023-08-29T15:21:08.795Z,83.50
2023-08-29T15:23:36.901Z,83.60
2023-08-29T15:26:05.752Z,83.50
2023-08-29T15:28:33.859Z,83.20
2023-08-29T15:31:02.606Z,83.10
2023-08-29T15:33:30.727Z,83.30
2023-08-29T15:35:59.164Z,83.30
2023-08-29T15:38:30.154Z,83.30
2023-08-29T15:40:58.390Z,82.50
2023-08-29T15:43:26.668Z,83.10
2023-08-29T15:45:56.474Z,83.50
2023-08-29T15:48:24.813Z,83.60
2023-08-29T15:50:55.275Z,83.60
2023-08-29T15:53:23.498Z,83.70
2023-08-29T15:55:53.026Z,83.70
2023-08-29T15:58:21.651Z,83.80
2023-08-29T16:00:49.773Z,83.80
2023-08-29T16:05:46.180Z,83.20
2023-08-29T16:08:14.274Z,83.50
2023-08-29T16:10:42.519Z,83.70
2023-08-29T16:13:11.975Z,83.70
2023-08-29T16:15:40.098Z,83.60
2023-08-29T16:18:08.554Z,83.40
2023-08-29T16:20:36.995Z,82.60
2023-08-29T16:23:05.399Z,83.20
2023-08-29T16:25:33.584Z,83.50
2023-08-29T16:28:02.959Z,83.50
2023-08-29T16:30:32.559Z,83.10
2023-08-29T16:33:00.979Z,83.30
2023-08-29T16:35:29.112Z,83.50
2023-08-29T16:38:02.356Z,83.50
2023-08-29T16:40:30.986Z,83.40
2023-08-29T16:42:59.188Z,83.40
2023-08-29T16:45:27.272Z,83.60
2023-08-29T16:47:57.376Z,83.70
2023-08-29T16:50:25.566Z,83.70
2023-08-29T16:52:53.702Z,83.50
2023-08-29T16:55:22.028Z,83.50
2023-08-29T16:57:50.202Z,83.70
2023-08-29T17:00:19.061Z,83.70
2023-08-29T17:02:47.279Z,83.70
2023-08-29T17:05:16.900Z,83.70
2023-08-29T17:07:45.024Z,83.80
2023-08-29T17:10:19.176Z,83.80
2023-08-29T17:12:47.349Z,83.80
2023-08-29T17:15:15.514Z,83.80
2023-08-29T17:17:43.640Z,83.80
2023-08-29T17:20:13.716Z,83.80
2023-08-29T17:22:44.206Z,83.70
2023-08-29T17:25:12.422Z,83.70
2023-08-29T17:27:40.510Z,83.70
2023-08-29T17:30:09.947Z,83.70
2023-08-29T17:32:38.100Z,83.70
2023-08-29T17:35:07.060Z,83.70
2023-08-29T17:37:36.279Z,83.70
2023-08-29T17:40:08.741Z,83.70
2023-08-29T17:42:40.312Z,83.70
2023-08-29T17:45:10.482Z,83.60
2023-08-29T17:47:38.724Z,83.60
2023-08-29T17:50:08.111Z,83.60
2023-08-29T17:52:36.570Z,83.60
2023-08-29T17:55:07.825Z,83.50
2023-08-29T17:57:35.997Z,83.50
2023-08-29T18:00:04.094Z,83.50
2023-08-29T18:02:32.423Z,83.50
2023-08-29T18:05:01.120Z,83.40
2023-08-29T18:07:30.932Z,83.40
2023-08-29T18:10:10.417Z,83.40
2023-08-29T18:12:38.808Z,83.40
2023-08-29T18:15:08.094Z,83.30
2023-08-29T18:17:37.038Z,83.30
2023-08-29T18:20:06.033Z,83.30
2023-08-29T18:22:35.269Z,83.30
2023-08-29T18:25:03.878Z,83.20
2023-08-29T18:27:33.420Z,83.20
2023-08-29T18:30:01.637Z,83.20
2023-08-29T18:32:32.761Z,83.20
2023-08-29T18:35:00.987Z,83.20
2023-08-29T18:37:29.165Z,83.10
2023-08-29T18:39:57.917Z,83.10
2023-08-29T18:42:26.105Z,83.20
2023-08-29T18:44:55.610Z,83.20
2023-08-29T18:47:23.708Z,83.10
2023-08-29T18:49:51.790Z,83.10
2023-08-29T18:52:20.934Z,83.10
2023-08-29T18:54:49.036Z,83.10
2023-08-29T18:57:17.122Z,83.10
2023-08-29T18:59:48.932Z,83.10
2023-08-29T19:02:18.461Z,83.10
2023-08-29T19:04:46.668Z,83.10
2023-08-29T19:07:14.851Z,83.10
2023-08-29T19:09:43.847Z,83.10
2023-08-29T19:12:11.943Z,83.10
2023-08-29T19:14:40.042Z,83.10
2023-08-29T19:17:08.893Z,83.10
2023-08-29T19:19:38.527Z,83.10
2023-08-29T19:22:06.627Z,83.10
2023-08-29T19:24:35.699Z,83.10
2023-08-29T19:27:06.708Z,83.10
2023-08-29T19:29:41.689Z,83.10
2023-08-29T19:32:09.856Z,83.10
2023-08-29T19:34:39.761Z,83.10
2023-08-29T19:37:07.845Z,83.10
2023-08-29T19:39:36.359Z,83.10
2023-08-29T19:42:04.571Z,83.20
2023-08-29T19:44:33.616Z,83.10
2023-08-29T19:47:04.766Z,83.10
2023-08-29T19:49:40.063Z,83.20
2023-08-29T19:52:08.332Z,83.20
2023-08-29T19:54:36.498Z,83.20
2023-08-29T19:57:05.008Z,83.20
2023-08-29T19:59:35.396Z,83.20
2023-08-29T20:02:03.792Z,83.20
2023-08-29T20:04:31.898Z,83.20
2023-08-29T20:07:01.379Z,83.30
2023-08-29T20:09:29.519Z,83.30
2023-08-29T20:11:57.645Z,83.30
2023-08-29T20:14:25.782Z,83.30
2023-08-29T20:16:54.102Z,83.30
2023-08-29T20:19:24.670Z,83.30
2023-08-29T20:21:52.831Z,83.40
2023-08-29T20:24:22.462Z,83.40
2023-08-29T20:26:50.546Z,83.40
2023-08-29T20:29:18.787Z,83.40
2023-08-29T20:31:46.883Z,83.40
2023-08-29T20:34:14.961Z,83.40
2023-08-29T20:36:49.710Z,83.40
2023-08-29T20:39:19.012Z,83.40
2023-08-29T20:41:48.516Z,83.40
2023-08-29T20:44:16.751Z,83.40
2023-08-29T20:46:44.873Z,83.40
2023-08-29T20:49:13.479Z,83.40
2023-08-29T20:51:42.281Z,83.40
2023-08-29T20:54:10.458Z,83.40
2023-08-29T20:56:38.623Z,83.40
2023-08-29T20:59:08.142Z,83.40
2023-08-29T21:01:36.226Z,83.40
2023-08-29T21:04:04.418Z,83.40
2023-08-29T21:06:32.520Z,83.30
2023-08-29T21:09:02.730Z,83.40
2023-08-29T21:11:30.812Z,83.40
2023-08-29T21:13:59.332Z,83.40
2023-08-29T21:16:28.826Z,83.40
2023-08-29T21:18:56.935Z,83.40
2023-08-29T21:21:25.051Z,83.40
2023-08-29T21:23:53.142Z,83.40
2023-08-29T21:26:21.377Z,83.40
2023-08-29T21:28:50.055Z,83.50
2023-08-29T21:31:18.230Z,83.50
2023-08-29T21:33:47.719Z,83.50
2023-08-29T21:36:15.807Z,83.50
2023-08-29T21:38:45.157Z,83.50
2023-08-29T21:41:13.259Z,83.50
2023-08-29T21:43:41.373Z,83.50
2023-08-29T21:46:09.505Z,83.50
2023-08-29T21:48:38.219Z,83.50
2023-08-29T21:51:12.743Z,83.60
2023-08-29T21:53:40.923Z,83.60
2023-08-29T21:56:10.166Z,83.60
2023-08-29T21:58:38.253Z,83.60
2023-08-29T22:01:06.964Z,83.60
2023-08-29T22:03:35.247Z,83.60
2023-08-29T22:06:03.485Z,83.60
2023-08-29T22:08:33.360Z,83.60
2023-08-29T22:11:02.030Z,83.60
2023-08-29T22:13:30.353Z,83.60
2023-08-29T22:15:58.455Z,83.60
2023-08-29T22:18:26.575Z,83.60
2023-08-29T22:20:54.669Z,83.60
2023-08-29T22:23:22.761Z,83.60
2023-08-29T22:25:52.368Z,83.70
2023-08-29T22:28:20.482Z,83.70
2023-08-29T22:30:48.968Z,83.70
2023-08-29T22:33:17.099Z,83.70
2023-08-29T22:35:48.731Z,83.70
2023-08-29T22:38:17.033Z,83.70
2023-08-29T22:40:45.195Z,83.70
2023-08-29T22:43:14.656Z,83.70
2023-08-29T22:45:42.860Z,83.70
2023-08-29T22:48:14.421Z,83.70
2023-08-29T22:50:43.180Z,83.70
2023-08-29T22:53:11.336Z,83.70
2023-08-29T22:55:39.481Z,83.70
2023-08-29T22:58:07.926Z,83.70
2023-08-29T23:00:38.676Z,83.70
2023-08-29T23:03:06.985Z,83.70
2023-08-29T23:05:35.235Z,83.70
2023-08-29T23:08:03.417Z,83.70
2023-08-29T23:10:33.031Z,83.70
2023-08-29T23:13:07.195Z,83.70
2023-08-29T23:15:35.356Z,83.70
2023-08-29T23:18:05.649Z,83.70
2023-08-29T23:20:33.933Z,83.70
2023-08-29T23:23:02.015Z,83.70
2023-08-29T23:25:30.921Z,83.70
2023-08-29T23:27:59.092Z,83.70
2023-08-29T23:30:29.092Z,83.70
2023-08-29T23:32:57.261Z,83.70
2023-08-29T23:35:26.752Z,83.70
2023-08-29T23:37:54.839Z,83.70
2023-08-29T23:40:22.920Z,83.70
2023-08-29T23:42:54.012Z,83.70
2023-08-29T23:45:22.080Z,83.70
2023-08-29T23:47:55.220Z,83.70
2023-08-29T23:50:23.385Z,83.70
2023-08-29T23:52:53.002Z,83.70
2023-08-29T23:55:21.079Z,83.70
2023-08-29T23:57:49.528Z,83.70
